createdAt,value
2018-12-01T00:01:49.752Z,4.87
2018-12-01T00:04:18.080Z,3.93
2018-12-01T00:06:46.173Z,4.17
2018-12-01T00:09:14.493Z,4.33
2018-12-01T00:11:42.677Z,4.23
2018-12-01T00:14:11.009Z,4.30
2018-12-01T00:16:39.441Z,3.87
2018-12-01T00:19:07.723Z,2.97
2018-12-01T00:21:36.017Z,9.40
2018-12-01T00:24:04.501Z,5.07
2018-12-01T00:26:32.952Z,6.23
2018-12-01T00:29:01.266Z,5.43
2018-12-01T00:31:29.454Z,6.87
2018-12-01T00:33:57.786Z,6.97
2018-12-01T00:36:26.108Z,5.73
2018-12-01T00:38:54.743Z,5.30
2018-12-01T00:41:23.007Z,5.47
2018-12-01T00:43:51.447Z,5.57
2018-12-01T00:46:19.763Z,4.53
2018-12-01T00:48:47.951Z,5.87
2018-12-01T00:51:16.147Z,5.13
2018-12-01T00:53:44.263Z,7.53
2018-12-01T00:56:12.476Z,3.93
2018-12-01T00:58:40.846Z,4.13
2018-12-01T01:01:09.126Z,4.40
2018-12-01T01:03:37.484Z,5.43
2018-12-01T01:06:05.954Z,5.40
2018-12-01T01:08:34.463Z,3.83
2018-12-01T01:11:02.822Z,6.00
2018-12-01T01:13:31.171Z,5.70
2018-12-01T01:15:59.447Z,4.77
2018-12-01T01:18:27.683Z,4.97
2018-12-01T01:20:55.926Z,9.37
2018-12-01T01:23:24.141Z,8.17
2018-12-01T01:25:52.344Z,5.90
2018-12-01T01:28:20.733Z,6.93
2018-12-01T01:30:48.936Z,8.13
2018-12-01T01:33:29.650Z,7.73
2018-12-01T01:35:58.136Z,6.17
2018-12-01T01:38:26.382Z,6.40
2018-12-01T01:41:00.094Z,5.27
2018-12-01T01:43:28.521Z,3.60
2018-12-01T01:45:57.129Z,6.90
2018-12-01T01:48:25.243Z,6.43
2018-12-01T01:50:53.672Z,4.77
2018-12-01T01:53:21.968Z,6.80
2018-12-01T01:55:50.091Z,3.87
2018-12-01T01:58:18.423Z,10.30
2018-12-01T02:00:46.674Z,9.63
2018-12-01T02:03:14.979Z,5.63
2018-12-01T02:05:43.338Z,6.83
2018-12-01T02:08:11.431Z,4.80
2018-12-01T02:10:39.618Z,6.33
2018-12-01T02:13:08.026Z,9.33
2018-12-01T02:15:36.329Z,5.93
2018-12-01T02:18:05.085Z,6.63
2018-12-01T02:20:33.497Z,10.33
2018-12-01T02:23:01.694Z,6.57
2018-12-01T02:25:30.050Z,8.77
2018-12-01T02:27:58.370Z,9.00
2018-12-01T02:30:26.936Z,10.47
2018-12-01T02:32:55.669Z,8.10
2018-12-01T02:35:26.051Z,6.10
2018-12-01T02:37:55.026Z,10.77
2018-12-01T02:40:22.649Z,8.60
2018-12-01T02:42:50.961Z,5.60
2018-12-01T02:45:30.396Z,8.40
2018-12-01T02:47:58.565Z,9.50
2018-12-01T02:50:28.164Z,8.97
2018-12-01T02:52:57.078Z,11.57
2018-12-01T02:55:25.369Z,8.37
2018-12-01T02:57:53.795Z,8.13
2018-12-01T03:00:22.409Z,6.27
2018-12-01T03:02:51.927Z,3.67
2018-12-01T03:05:22.236Z,7.73
2018-12-01T03:07:50.695Z,6.37
2018-12-01T03:10:20.276Z,4.00
2018-12-01T03:12:48.723Z,9.33
2018-12-01T03:15:18.478Z,5.77
2018-12-01T03:17:47.388Z,2.63
2018-12-01T03:20:16.175Z,7.80
2018-12-01T03:22:44.539Z,8.67
2018-12-01T03:25:24.312Z,7.37
2018-12-01T03:27:53.615Z,3.97
2018-12-01T03:30:22.772Z,7.77
2018-12-01T03:32:51.744Z,6.90
2018-12-01T03:35:20.518Z,5.57
2018-12-01T03:37:49.312Z,5.37
2018-12-01T03:40:18.086Z,4.00
2018-12-01T03:42:46.336Z,5.90
2018-12-01T03:45:16.385Z,5.10
2018-12-01T03:47:44.736Z,4.87
2018-12-01T03:50:18.190Z,3.20
2018-12-01T03:52:46.473Z,6.40
2018-12-01T03:55:23.991Z,4.60
2018-12-01T03:57:52.465Z,5.60
2018-12-01T04:00:27.926Z,7.70
2018-12-01T04:02:56.665Z,7.20
2018-12-01T04:05:25.174Z,4.60
2018-12-01T04:07:53.583Z,4.43
2018-12-01T04:10:21.931Z,6.17
2018-12-01T04:12:50.126Z,7.00
2018-12-01T04:15:18.397Z,5.00
2018-12-01T04:17:46.607Z,7.40
2018-12-01T04:20:14.770Z,8.57
2018-12-01T04:22:42.930Z,4.33
2018-12-01T04:25:11.272Z,7.60
2018-12-01T04:27:40.058Z,3.07
2018-12-01T04:30:11.306Z,3.33
2018-12-01T04:32:39.517Z,4.97
2018-12-01T04:35:08.137Z,6.03
2018-12-01T04:37:36.697Z,7.10
2018-12-01T04:40:06.798Z,7.03
2018-12-01T04:42:34.989Z,3.20
2018-12-01T04:45:03.374Z,5.70
2018-12-01T04:47:32.045Z,3.63
2018-12-01T04:50:00.490Z,5.33
2018-12-01T04:52:29.067Z,6.10
2018-12-01T04:54:57.346Z,3.87
2018-12-01T04:57:25.890Z,5.70
2018-12-01T04:59:54.410Z,7.03
2018-12-01T05:02:22.534Z,9.70
2018-12-01T05:04:50.976Z,2.93
2018-12-01T05:07:19.176Z,3.73
2018-12-01T05:09:48.097Z,4.20
2018-12-01T05:12:16.869Z,5.00
2018-12-01T05:14:45.631Z,5.30
2018-12-01T05:17:13.853Z,4.33
2018-12-01T05:19:42.149Z,3.47
2018-12-01T05:22:10.410Z,4.43
2018-12-01T05:24:38.713Z,4.57
2018-12-01T05:27:07.012Z,6.77
2018-12-01T05:29:35.459Z,5.73
2018-12-01T05:32:04.178Z,5.13
2018-12-01T05:34:32.760Z,4.03
2018-12-01T05:37:01.075Z,4.97
2018-12-01T05:39:29.435Z,4.30
2018-12-01T05:41:57.630Z,4.80
2018-12-01T05:44:26.149Z,3.50
2018-12-01T05:46:54.473Z,5.30
2018-12-01T05:49:22.970Z,4.87
2018-12-01T05:51:51.207Z,4.30
2018-12-01T05:54:19.643Z,3.80
2018-12-01T05:56:48.075Z,4.07
2018-12-01T05:59:16.260Z,4.60
2018-12-01T06:01:44.755Z,4.33
2018-12-01T06:04:13.033Z,3.50
2018-12-01T06:06:41.349Z,6.40
2018-12-01T06:09:09.858Z,2.50
2018-12-01T06:11:37.952Z,5.03
2018-12-01T06:14:06.096Z,3.97
2018-12-01T06:16:34.923Z,4.33
2018-12-01T06:19:02.613Z,3.87
2018-12-01T06:21:30.821Z,7.17
2018-12-01T06:23:59.108Z,6.00
2018-12-01T06:26:27.373Z,5.67
2018-12-01T06:28:55.724Z,5.80
2018-12-01T06:31:24.128Z,5.67
2018-12-01T06:33:52.510Z,9.47
2018-12-01T06:36:20.753Z,8.03
2018-12-01T06:38:49.170Z,9.63
2018-12-01T06:41:17.810Z,6.10
2018-12-01T06:43:46.594Z,6.63
2018-12-01T06:46:15.323Z,5.57
2018-12-01T06:48:43.962Z,8.37
2018-12-01T06:51:12.518Z,9.50
2018-12-01T06:53:42.303Z,9.00
2018-12-01T06:56:11.704Z,10.53
2018-12-01T06:58:40.508Z,15.57
2018-12-01T07:01:09.192Z,12.90
2018-12-01T07:03:38.101Z,11.37
2018-12-01T07:06:06.672Z,11.93
2018-12-01T07:08:35.191Z,10.00
2018-12-01T07:11:03.717Z,13.70
2018-12-01T07:13:32.264Z,14.90
2018-12-01T07:16:00.908Z,11.33
2018-12-01T07:18:40.631Z,18.07
2018-12-01T07:21:09.312Z,10.10
2018-12-01T07:23:37.841Z,6.57
2018-12-01T07:26:06.644Z,11.23
2018-12-01T07:28:35.028Z,8.30
2018-12-01T07:31:03.823Z,12.87
2018-12-01T07:33:32.840Z,9.93
2018-12-01T07:36:01.707Z,7.10
2018-12-01T07:38:31.465Z,12.67
2018-12-01T07:41:00.407Z,7.20
2018-12-01T07:43:29.314Z,5.50
2018-12-01T07:45:57.767Z,6.73
2018-12-01T07:48:26.521Z,16.37
2018-12-01T07:50:55.611Z,8.07
2018-12-01T07:53:24.578Z,5.07
2018-12-01T07:55:53.290Z,9.87
2018-12-01T07:58:21.953Z,10.97
2018-12-01T08:00:50.500Z,6.43
2018-12-01T08:03:19.037Z,9.97
2018-12-01T08:05:47.812Z,10.57
2018-12-01T08:08:16.590Z,12.10
2018-12-01T08:10:44.973Z,13.43
2018-12-01T08:13:13.536Z,11.17
2018-12-01T08:15:42.543Z,9.00
2018-12-01T08:18:11.559Z,10.43
2018-12-01T08:20:40.202Z,14.97
2018-12-01T08:23:09.203Z,5.90
2018-12-01T08:25:37.688Z,12.27
2018-12-01T08:28:07.600Z,14.00
2018-12-01T08:30:36.410Z,9.43
2018-12-01T08:33:04.949Z,9.80
2018-12-01T08:35:33.546Z,10.50
2018-12-01T08:38:02.759Z,11.47
2018-12-01T08:40:32.116Z,8.40
2018-12-01T08:43:01.108Z,9.73
2018-12-01T08:45:30.481Z,6.03
2018-12-01T08:47:59.414Z,6.90
2018-12-01T08:50:27.859Z,9.13
2018-12-01T08:52:56.316Z,11.20
2018-12-01T08:55:25.007Z,14.23
2018-12-01T08:57:53.771Z,18.43
2018-12-01T09:00:32.528Z,10.70
2018-12-01T09:03:18.300Z,15.80
2018-12-01T09:05:46.755Z,8.30
2018-12-01T09:08:15.061Z,14.73
2018-12-01T09:10:43.559Z,8.27
2018-12-01T09:13:12.090Z,9.47
2018-12-01T09:15:40.711Z,12.33
2018-12-01T09:18:09.150Z,8.77
2018-12-01T09:20:37.874Z,12.00
2018-12-01T09:23:06.591Z,9.77
2018-12-01T09:25:35.329Z,13.43
2018-12-01T09:28:04.036Z,8.60
2018-12-01T09:30:34.173Z,10.67
2018-12-01T09:33:03.430Z,9.13
2018-12-01T09:35:32.574Z,12.80
2018-12-01T09:38:01.440Z,7.77
2018-12-01T09:40:30.140Z,10.27
2018-12-01T09:42:58.579Z,11.13
2018-12-01T09:45:26.979Z,9.30
2018-12-01T09:47:55.962Z,12.53
2018-12-01T09:50:24.636Z,13.70
2018-12-01T09:52:54.640Z,11.60
2018-12-01T09:55:24.242Z,13.93
2018-12-01T09:57:52.712Z,13.63
2018-12-01T10:00:25.449Z,18.13
2018-12-01T10:02:54.417Z,13.13
2018-12-01T10:05:23.011Z,16.57
2018-12-01T10:07:51.722Z,13.80
2018-12-01T10:10:21.376Z,13.93
2018-12-01T10:12:50.761Z,15.17
2018-12-01T10:15:21.055Z,15.37
2018-12-01T10:17:49.650Z,13.87
2018-12-01T10:20:22.171Z,13.30
2018-12-01T10:22:50.781Z,18.13
2018-12-01T10:25:19.674Z,14.13
2018-12-01T10:27:48.104Z,12.63
2018-12-01T10:30:17.327Z,17.37
2018-12-01T10:32:45.923Z,11.07
2018-12-01T10:35:17.491Z,16.40
2018-12-01T10:37:50.474Z,15.27
2018-12-01T10:40:19.342Z,13.83
2018-12-01T10:42:47.844Z,12.47
2018-12-01T10:45:17.307Z,14.10
2018-12-01T10:47:46.116Z,11.40
2018-12-01T10:50:18.903Z,18.13
2018-12-01T10:52:48.470Z,10.70
2018-12-01T10:55:23.252Z,16.23
2018-12-01T10:57:52.756Z,21.93
2018-12-01T11:00:27.292Z,15.37
2018-12-01T11:03:59.694Z,13.33
2018-12-01T11:06:28.355Z,16.93
2018-12-01T11:08:56.982Z,13.37
2018-12-01T11:11:25.928Z,13.30
2018-12-01T11:13:54.802Z,17.57
2018-12-01T11:16:23.904Z,13.97
2018-12-01T11:18:52.576Z,19.03
2018-12-01T11:21:21.133Z,17.07
2018-12-01T11:23:49.721Z,16.97
2018-12-01T11:26:18.534Z,15.47
2018-12-01T11:28:47.376Z,13.37
2018-12-01T11:31:16.093Z,14.10
2018-12-01T11:33:44.548Z,16.70
2018-12-01T11:36:13.262Z,15.77
2018-12-01T11:38:42.096Z,11.60
2018-12-01T11:41:10.958Z,15.00
2018-12-01T11:43:39.755Z,17.67
2018-12-01T11:46:08.282Z,16.07
2018-12-01T11:48:36.939Z,16.47
2018-12-01T11:51:05.494Z,12.93
2018-12-01T11:53:34.075Z,16.53
2018-12-01T11:56:02.686Z,14.40
2018-12-01T11:58:31.177Z,17.33
2018-12-01T12:00:59.840Z,14.50
2018-12-01T12:03:28.428Z,14.20
2018-12-01T12:05:57.482Z,15.93
2018-12-01T12:08:26.840Z,10.13
2018-12-01T12:10:55.408Z,13.53
2018-12-01T12:13:25.599Z,13.20
2018-12-01T12:15:54.419Z,14.37
2018-12-01T12:18:23.481Z,12.37
2018-12-01T12:20:52.171Z,13.37
2018-12-01T12:23:21.378Z,15.10
2018-12-01T12:25:49.961Z,12.57
2018-12-01T12:28:18.508Z,13.20
2018-12-01T12:30:47.172Z,17.87
2018-12-01T12:33:15.933Z,18.00
2018-12-01T12:35:45.063Z,22.53
2018-12-01T12:38:14.562Z,13.83
2018-12-01T12:40:44.186Z,15.60
2018-12-01T12:43:13.660Z,16.70
2018-12-01T12:45:43.361Z,12.77
2018-12-01T12:48:12.179Z,11.97
2018-12-01T12:50:41.036Z,12.90
2018-12-01T12:53:11.218Z,14.03
2018-12-01T12:55:40.082Z,9.83
2018-12-01T12:58:08.765Z,15.17
2018-12-01T13:00:37.507Z,11.00
2018-12-01T13:03:09.114Z,11.83
2018-12-01T13:05:42.143Z,16.27
2018-12-01T13:08:11.605Z,14.20
2018-12-01T13:10:40.359Z,15.57
2018-12-01T13:13:09.128Z,14.90
2018-12-01T13:15:38.630Z,19.00
2018-12-01T13:18:09.907Z,9.83
2018-12-01T13:20:38.562Z,13.63
2018-12-01T13:23:07.559Z,12.73
2018-12-01T13:25:36.365Z,11.40
2018-12-01T13:28:15.851Z,13.67
2018-12-01T13:30:45.733Z,14.37
2018-12-01T13:33:14.344Z,16.97
2018-12-01T13:35:42.964Z,17.03
2018-12-01T13:38:11.517Z,19.73
2018-12-01T13:40:40.006Z,21.73
2018-12-01T13:43:08.719Z,16.50
2018-12-01T13:45:37.624Z,17.57
2018-12-01T13:48:06.859Z,21.43
2018-12-01T13:50:35.393Z,18.10
2018-12-01T13:53:05.992Z,17.00
2018-12-01T13:55:34.457Z,19.33
2018-12-01T13:58:02.939Z,14.40
2018-12-01T14:00:31.965Z,15.27
2018-12-01T14:03:00.656Z,14.17
2018-12-01T14:05:28.987Z,13.57
2018-12-01T14:07:57.527Z,12.53
2018-12-01T14:10:27.796Z,14.00
2018-12-01T14:13:04.288Z,15.80
2018-12-01T14:15:32.905Z,16.33
2018-12-01T14:18:01.483Z,18.13
2018-12-01T14:20:30.175Z,17.43
2018-12-01T14:22:58.861Z,16.10
2018-12-01T14:25:27.884Z,14.83
2018-12-01T14:27:58.103Z,20.03
2018-12-01T14:30:27.179Z,16.90
2018-12-01T14:32:56.266Z,13.53
2018-12-01T14:35:27.883Z,13.43
2018-12-01T14:38:17.112Z,14.07
2018-12-01T14:40:46.447Z,13.27
2018-12-01T14:43:15.052Z,12.77
2018-12-01T14:45:47.441Z,15.93
2018-12-01T14:48:16.019Z,11.33
2018-12-01T14:50:48.585Z,9.00
2018-12-01T14:53:14.061Z,14.00
2018-12-01T14:55:42.556Z,9.40
2018-12-01T14:58:11.153Z,7.90
2018-12-01T15:00:42.302Z,10.67
2018-12-01T15:03:11.977Z,10.80
2018-12-01T15:05:42.166Z,9.93
2018-12-01T15:08:11.789Z,10.33
2018-12-01T15:10:41.182Z,10.27
2018-12-01T15:13:10.806Z,10.43
2018-12-01T15:15:40.605Z,6.67
2018-12-01T15:18:09.725Z,9.07
2018-12-01T15:23:35.579Z,12.20
2018-12-01T15:26:04.636Z,9.40
2018-12-01T15:28:33.957Z,9.13
2018-12-01T15:31:03.184Z,7.97
2018-12-01T15:33:31.743Z,13.17
2018-12-01T15:36:00.770Z,8.20
2018-12-01T15:38:30.343Z,14.03
2018-12-01T15:40:59.286Z,15.17
2018-12-01T15:43:28.683Z,10.83
2018-12-01T15:45:59.164Z,9.60
2018-12-01T15:48:30.089Z,5.30
2018-12-01T15:50:58.809Z,8.57
2018-12-01T15:53:28.572Z,7.10
2018-12-01T15:55:57.376Z,6.60
2018-12-01T15:58:26.699Z,8.43
2018-12-01T16:00:55.198Z,6.47
2018-12-01T16:03:24.359Z,6.40
2018-12-01T16:05:54.208Z,9.73
2018-12-01T16:08:23.103Z,9.57
2018-12-01T16:10:52.449Z,6.33
2018-12-01T16:13:22.748Z,7.90
2018-12-01T16:15:57.266Z,9.27
2018-12-01T16:18:26.883Z,7.13
2018-12-01T16:20:55.492Z,11.53
2018-12-01T16:23:24.260Z,5.93
2018-12-01T16:25:53.440Z,7.33
2018-12-01T16:28:22.285Z,8.77
2018-12-01T16:30:52.402Z,7.47
2018-12-01T16:33:22.906Z,7.17
2018-12-01T16:35:51.819Z,7.40
2018-12-01T16:38:26.110Z,7.63
2018-12-01T16:41:02.354Z,6.20
2018-12-01T16:43:33.802Z,6.57
2018-12-01T16:46:02.607Z,5.37
2018-12-01T16:48:31.495Z,6.87
2018-12-01T16:51:00.178Z,7.67
2018-12-01T16:53:28.958Z,6.97
2018-12-01T16:55:57.434Z,6.03
2018-12-01T16:58:26.069Z,5.90
2018-12-01T17:00:54.690Z,7.27
2018-12-01T17:03:23.291Z,9.80
2018-12-01T17:05:54.372Z,4.37
2018-12-01T17:08:22.872Z,8.30
2018-12-01T17:10:51.481Z,7.57
2018-12-01T17:13:20.074Z,7.63
2018-12-01T17:15:48.504Z,10.50
2018-12-01T17:18:17.152Z,8.53
2018-12-01T17:20:45.806Z,5.57
2018-12-01T17:23:15.305Z,9.43
2018-12-01T17:25:43.944Z,8.27
2018-12-01T17:28:13.945Z,7.20
2018-12-01T17:30:42.476Z,6.80
2018-12-01T17:33:11.044Z,6.07
2018-12-01T17:35:39.587Z,6.50
2018-12-01T17:38:13.074Z,4.37
2018-12-01T17:40:44.214Z,9.60
2018-12-01T17:43:14.600Z,6.23
2018-12-01T17:45:43.115Z,6.90
2018-12-01T17:48:11.712Z,7.37
2018-12-01T17:50:40.614Z,6.53
2018-12-01T17:53:10.423Z,7.23
2018-12-01T17:55:38.350Z,3.60
2018-12-01T17:58:08.652Z,8.00
2018-12-01T18:00:37.216Z,4.60
2018-12-01T18:03:06.503Z,6.00
2018-12-01T18:05:44.022Z,5.23
2018-12-01T18:08:15.152Z,4.60
2018-12-01T18:10:44.082Z,7.00
2018-12-01T18:13:12.836Z,6.40
2018-12-01T18:15:41.385Z,6.23
2018-12-01T18:18:10.287Z,7.43
2018-12-01T18:20:38.973Z,7.50
2018-12-01T18:23:08.996Z,5.33
2018-12-01T18:25:40.938Z,7.90
2018-12-01T18:28:11.521Z,6.63
2018-12-01T18:30:41.334Z,9.13
2018-12-01T18:33:15.923Z,6.23
2018-12-01T18:35:45.242Z,7.63
2018-12-01T18:38:14.489Z,3.57
2018-12-01T18:40:43.619Z,8.87
2018-12-01T18:43:12.560Z,6.67
2018-12-01T18:45:43.329Z,6.50
2018-12-01T18:48:12.539Z,5.30
2018-12-01T18:50:42.617Z,9.03
2018-12-01T18:53:11.936Z,4.57
2018-12-01T18:55:44.128Z,4.33
2018-12-01T18:58:12.793Z,12.67
2018-12-01T19:00:45.252Z,11.37
2018-12-01T19:03:14.269Z,9.60
2018-12-01T19:05:43.074Z,9.07
2018-12-01T19:08:12.312Z,7.87
2018-12-01T19:10:42.822Z,9.97
2018-12-01T19:13:11.580Z,13.87
2018-12-01T19:15:41.260Z,9.10
2018-12-01T19:18:09.894Z,9.90
2018-12-01T19:20:38.727Z,6.03
2018-12-01T19:23:08.877Z,10.50
2018-12-01T19:25:39.222Z,9.30
2018-12-01T19:28:07.926Z,8.13
2018-12-01T19:30:36.718Z,11.37
2018-12-01T19:33:10.887Z,9.97
2018-12-01T19:35:39.864Z,8.60
2018-12-01T19:38:09.883Z,10.27
2018-12-01T19:40:38.617Z,11.00
2018-12-01T19:43:07.217Z,5.87
2018-12-01T19:45:36.097Z,9.30
2018-12-01T19:48:04.929Z,8.10
2018-12-01T19:50:34.452Z,8.47
2018-12-01T19:53:03.098Z,9.80
2018-12-01T19:55:32.669Z,11.17
2018-12-01T19:58:02.673Z,22.87
2018-12-01T20:00:31.481Z,15.57
2018-12-01T20:03:03.413Z,15.00
2018-12-01T20:05:32.417Z,10.87
2018-12-01T20:08:00.984Z,12.93
2018-12-01T20:10:33.275Z,9.97
2018-12-01T20:13:08.322Z,8.73
2018-12-01T20:15:41.285Z,6.70
2018-12-01T20:18:17.830Z,7.57
2018-12-01T20:20:46.331Z,8.17
2018-12-01T20:23:14.898Z,8.23
2018-12-01T20:25:43.918Z,5.13
2018-12-01T20:28:12.361Z,8.50
2018-12-01T20:30:42.161Z,21.63
2018-12-01T20:33:10.792Z,9.83
2018-12-01T20:35:41.597Z,9.53
2018-12-01T20:38:12.987Z,14.67
2018-12-01T20:40:41.434Z,10.37
2018-12-01T20:43:10.091Z,8.43
2018-12-01T20:45:38.802Z,11.97
2018-12-01T20:48:07.349Z,10.17
2018-12-01T20:50:36.110Z,11.03
2018-12-01T20:53:04.786Z,9.40
2018-12-01T20:55:33.599Z,17.03
2018-12-01T20:58:04.385Z,9.23
2018-12-01T21:00:33.316Z,9.90
2018-12-01T21:03:02.130Z,10.93
2018-12-01T21:05:30.744Z,12.40
2018-12-01T21:08:02.279Z,11.33
2018-12-01T21:10:30.508Z,7.30
2018-12-01T21:13:00.797Z,6.70
2018-12-01T21:15:29.735Z,9.40
2018-12-01T21:17:58.404Z,5.50
2018-12-01T21:20:27.303Z,14.73
2018-12-01T21:22:55.812Z,10.73
2018-12-01T21:25:26.279Z,10.83
2018-12-01T21:27:57.961Z,12.23
2018-12-01T21:30:27.443Z,7.87
2018-12-01T21:33:01.472Z,10.17
2018-12-01T21:35:30.242Z,12.57
2018-12-01T21:37:58.939Z,10.63
2018-12-01T21:40:27.728Z,8.33
2018-12-01T21:42:55.975Z,11.80
2018-12-01T21:45:24.604Z,7.23
2018-12-01T21:47:53.321Z,7.83
2018-12-01T21:50:22.473Z,9.40
2018-12-01T21:52:54.847Z,9.50
2018-12-01T21:55:23.849Z,10.53
2018-12-01T21:57:52.894Z,6.97
2018-12-01T22:00:26.110Z,5.47
2018-12-01T22:03:00.551Z,8.60
2018-12-01T22:05:31.719Z,9.23
2018-12-01T22:08:00.200Z,9.47
2018-12-01T22:10:28.699Z,8.97
2018-12-01T22:12:57.217Z,9.47
2018-12-01T22:15:25.569Z,10.53
2018-12-01T22:17:54.022Z,7.77
2018-12-01T22:20:22.982Z,9.00
2018-12-01T22:22:51.692Z,7.80
2018-12-01T22:25:20.143Z,18.47
2018-12-01T22:27:48.900Z,10.73
2018-12-01T22:30:19.100Z,7.13
2018-12-01T22:32:53.525Z,11.43
2018-12-01T22:35:29.232Z,20.70
2018-12-01T22:37:58.126Z,14.13
2018-12-01T22:40:29.294Z,12.87
2018-12-01T22:42:58.909Z,13.03
2018-12-01T22:45:27.153Z,11.63
2018-12-01T22:47:55.598Z,10.97
2018-12-01T22:50:24.091Z,15.27
2018-12-01T22:52:52.852Z,11.00
2018-12-01T22:55:22.935Z,13.93
2018-12-01T22:57:53.315Z,9.00
2018-12-01T23:00:23.593Z,7.97
2018-12-01T23:02:51.889Z,8.10
2018-12-01T23:05:20.060Z,9.90
2018-12-01T23:07:48.328Z,20.40
2018-12-01T23:10:17.058Z,23.40
2018-12-01T23:12:46.084Z,19.73
2018-12-01T23:15:16.218Z,18.53
2018-12-01T23:17:46.522Z,16.03
2018-12-01T23:20:19.733Z,18.60
2018-12-01T23:22:48.464Z,20.07
2018-12-01T23:25:16.977Z,17.40
2018-12-01T23:27:45.307Z,24.97
2018-12-01T23:30:30.288Z,17.23
2018-12-01T23:33:16.801Z,17.90
2018-12-01T23:35:44.999Z,19.47
2018-12-01T23:38:13.401Z,19.87
2018-12-01T23:40:41.770Z,17.60
2018-12-01T23:43:10.045Z,18.70
2018-12-01T23:45:39.813Z,20.27
2018-12-01T23:48:08.109Z,19.47
2018-12-01T23:50:37.140Z,18.17
2018-12-01T23:53:08.209Z,18.43
2018-12-01T23:55:36.685Z,18.63
2018-12-01T23:58:04.913Z,19.17
